sensor_id;sensor_type;location;lat;lon;timestamp;temperature;humidity
5128;DHT22;2582;48.770;9.190;2023-04-24T00:00:33;13.30;99.90
5128;DHT22;2582;48.770;9.190;2023-04-24T00:02:58;13.40;99.90
5128;DHT22;2582;48.770;9.190;2023-04-24T00:05:24;13.40;99.90
5128;DHT22;2582;48.770;9.190;2023-04-24T00:07:50;13.40;99.90
5128;DHT22;2582;48.770;9.190;2023-04-24T00:10:19;13.50;99.90
5128;DHT22;2582;48.770;9.190;2023-04-24T00:12:45;13.40;99.90
5128;DHT22;2582;48.770;9.190;2023-04-24T00:15:11;13.50;99.90
5128;DHT22;2582;48.770;9.190;2023-04-24T00:17:37;13.50;99.90
5128;DHT22;2582;48.770;9.190;2023-04-24T00:20:03;13.60;99.90
5128;DHT22;2582;48.770;9.190;2023-04-24T00:22:30;13.50;99.90
5128;DHT22;2582;48.770;9.190;2023-04-24T00:24:56;13.50;99.90
5128;DHT22;2582;48.770;9.190;2023-04-24T00:27:22;13.50;99.90
5128;DHT22;2582;48.770;9.190;2023-04-24T00:29:47;13.40;99.90
5128;DHT22;2582;48.770;9.190;2023-04-24T00:32:13;13.50;99.90
5128;DHT22;2582;48.770;9.190;2023-04-24T00:34:40;13.40;99.90
5128;DHT22;2582;48.770;9.190;2023-04-24T00:37:05;13.60;99.90
5128;DHT22;2582;48.770;9.190;2023-04-24T00:39:31;13.70;99.90
5128;DHT22;2582;48.770;9.190;2023-04-24T00:41:57;13.70;99.90
5128;DHT22;2582;48.770;9.190;2023-04-24T00:44:23;13.60;99.90
5128;DHT22;2582;48.770;9.190;2023-04-24T00:46:49;13.60;99.90
5128;DHT22;2582;48.770;9.190;2023-04-24T00:49:21;13.60;99.90
5128;DHT22;2582;48.770;9.190;2023-04-24T00:51:47;13.70;99.90
5128;DHT22;2582;48.770;9.190;2023-04-24T00:54:13;13.80;99.90
5128;DHT22;2582;48.770;9.190;2023-04-24T00:56:40;13.80;99.90
5128;DHT22;2582;48.770;9.190;2023-04-24T00:59:06;13.70;99.90
5128;DHT22;2582;48.770;9.190;2023-04-24T01:01:31;13.60;99.90
5128;DHT22;2582;48.770;9.190;2023-04-24T01:03:58;13.60;99.90
5128;DHT22;2582;48.770;9.190;2023-04-24T01:06:27;13.70;99.90
5128;DHT22;2582;48.770;9.190;2023-04-24T01:08:54;13.80;99.90
5128;DHT22;2582;48.770;9.190;2023-04-24T01:11:21;13.60;99.90
5128;DHT22;2582;48.770;9.190;2023-04-24T01:13:47;13.60;99.90
5128;DHT22;2582;48.770;9.190;2023-04-24T01:16:16;13.60;99.90
5128;DHT22;2582;48.770;9.190;2023-04-24T01:18:43;13.50;99.90
5128;DHT22;2582;48.770;9.190;2023-04-24T01:21:09;13.60;99.90
5128;DHT22;2582;48.770;9.190;2023-04-24T01:23:37;13.60;99.90
5128;DHT22;2582;48.770;9.190;2023-04-24T01:26:02;13.60;99.90
5128;DHT22;2582;48.770;9.190;2023-04-24T01:28:28;13.60;99.90
5128;DHT22;2582;48.770;9.190;2023-04-24T01:30:54;13.60;99.90
5128;DHT22;2582;48.770;9.190;2023-04-24T01:33:21;13.80;99.90
5128;DHT22;2582;48.770;9.190;2023-04-24T01:35:47;13.80;99.90
5128;DHT22;2582;48.770;9.190;2023-04-24T01:38:13;13.80;99.90
5128;DHT22;2582;48.770;9.190;2023-04-24T01:40:39;13.70;99.90
5128;DHT22;2582;48.770;9.190;2023-04-24T01:43:05;13.70;99.90
5128;DHT22;2582;48.770;9.190;2023-04-24T01:45:30;13.70;99.90
5128;DHT22;2582;48.770;9.190;2023-04-24T01:47:56;13.50;99.90
5128;DHT22;2582;48.770;9.190;2023-04-24T01:50:22;13.60;99.90
5128;DHT22;2582;48.770;9.190;2023-04-24T01:52:48;13.60;99.90
5128;DHT22;2582;48.770;9.190;2023-04-24T01:55:14;13.60;99.90
5128;DHT22;2582;48.770;9.190;2023-04-24T01:57:39;13.60;99.90
5128;DHT22;2582;48.770;9.190;2023-04-24T02:00:06;13.60;99.90
5128;DHT22;2582;48.770;9.190;2023-04-24T02:02:32;13.60;99.90
5128;DHT22;2582;48.770;9.190;2023-04-24T02:04:58;13.50;99.90
5128;DHT22;2582;48.770;9.190;2023-04-24T02:07:23;13.60;99.90
5128;DHT22;2582;48.770;9.190;2023-04-24T02:09:49;13.60;99.90
5128;DHT22;2582;48.770;9.190;2023-04-24T02:12:15;13.50;99.90
5128;DHT22;2582;48.770;9.190;2023-04-24T02:14:41;13.50;99.90
5128;DHT22;2582;48.770;9.190;2023-04-24T02:17:07;13.40;99.90
5128;DHT22;2582;48.770;9.190;2023-04-24T02:19:33;13.30;99.90
5128;DHT22;2582;48.770;9.190;2023-04-24T02:21:58;13.40;99.90
5128;DHT22;2582;48.770;9.190;2023-04-24T02:24:24;13.30;99.90
5128;DHT22;2582;48.770;9.190;2023-04-24T02:26:50;13.30;99.90
5128;DHT22;2582;48.770;9.190;2023-04-24T02:29:15;13.20;99.90
5128;DHT22;2582;48.770;9.190;2023-04-24T02:31:41;13.10;99.90
5128;DHT22;2582;48.770;9.190;2023-04-24T02:34:07;13.00;99.90
5128;DHT22;2582;48.770;9.190;2023-04-24T02:36:32;13.00;99.90
5128;DHT22;2582;48.770;9.190;2023-04-24T02:38:58;13.10;99.90
5128;DHT22;2582;48.770;9.190;2023-04-24T02:41:23;13.20;99.90
5128;DHT22;2582;48.770;9.190;2023-04-24T02:43:49;13.20;99.90
5128;DHT22;2582;48.770;9.190;2023-04-24T02:46:15;13.30;99.90
5128;DHT22;2582;48.770;9.190;2023-04-24T02:48:40;13.40;99.90
5128;DHT22;2582;48.770;9.190;2023-04-24T02:51:06;13.20;99.90
5128;DHT22;2582;48.770;9.190;2023-04-24T02:53:32;13.40;99.90
5128;DHT22;2582;48.770;9.190;2023-04-24T02:55:57;13.40;99.90
5128;DHT22;2582;48.770;9.190;2023-04-24T02:58:23;13.40;99.90
5128;DHT22;2582;48.770;9.190;2023-04-24T03:00:49;13.50;99.90
5128;DHT22;2582;48.770;9.190;2023-04-24T03:03:18;13.60;99.90
5128;DHT22;2582;48.770;9.190;2023-04-24T03:05:43;13.50;99.90
5128;DHT22;2582;48.770;9.190;2023-04-24T03:08:09;13.60;99.90
5128;DHT22;2582;48.770;9.190;2023-04-24T03:10:35;13.50;99.90
5128;DHT22;2582;48.770;9.190;2023-04-24T03:13:01;13.30;99.90
5128;DHT22;2582;48.770;9.190;2023-04-24T03:15:26;13.20;99.90
5128;DHT22;2582;48.770;9.190;2023-04-24T03:17:52;13.20;99.90
5128;DHT22;2582;48.770;9.190;2023-04-24T03:20:18;13.00;99.90
5128;DHT22;2582;48.770;9.190;2023-04-24T03:22:43;13.00;99.90
5128;DHT22;2582;48.770;9.190;2023-04-24T03:25:09;12.90;99.90
5128;DHT22;2582;48.770;9.190;2023-04-24T03:27:35;12.80;99.90
5128;DHT22;2582;48.770;9.190;2023-04-24T03:30:00;12.80;99.90
5128;DHT22;2582;48.770;9.190;2023-04-24T03:32:26;12.40;99.90
5128;DHT22;2582;48.770;9.190;2023-04-24T03:34:52;12.40;99.90
5128;DHT22;2582;48.770;9.190;2023-04-24T03:37:18;12.50;99.90
5128;DHT22;2582;48.770;9.190;2023-04-24T03:39:44;12.60;99.90
5128;DHT22;2582;48.770;9.190;2023-04-24T03:42:09;12.70;99.90
5128;DHT22;2582;48.770;9.190;2023-04-24T03:44:36;12.70;99.90
5128;DHT22;2582;48.770;9.190;2023-04-24T03:47:01;12.90;99.90
5128;DHT22;2582;48.770;9.190;2023-04-24T03:49:27;12.90;99.90
5128;DHT22;2582;48.770;9.190;2023-04-24T03:51:53;13.00;99.90
5128;DHT22;2582;48.770;9.190;2023-04-24T03:54:19;12.90;99.90
5128;DHT22;2582;48.770;9.190;2023-04-24T03:56:45;12.90;99.90
5128;DHT22;2582;48.770;9.190;2023-04-24T03:59:11;12.80;99.90
5128;DHT22;2582;48.770;9.190;2023-04-24T04:01:37;12.80;99.90
5128;DHT22;2582;48.770;9.190;2023-04-24T04:04:06;12.60;99.90
5128;DHT22;2582;48.770;9.190;2023-04-24T04:06:32;12.50;99.90
5128;DHT22;2582;48.770;9.190;2023-04-24T04:08:58;12.50;99.90
5128;DHT22;2582;48.770;9.190;2023-04-24T04:11:24;12.30;99.90
5128;DHT22;2582;48.770;9.190;2023-04-24T04:13:49;12.20;99.90
5128;DHT22;2582;48.770;9.190;2023-04-24T04:16:16;12.20;99.90
5128;DHT22;2582;48.770;9.190;2023-04-24T04:18:43;12.20;99.90
5128;DHT22;2582;48.770;9.190;2023-04-24T04:21:08;12.30;99.90
5128;DHT22;2582;48.770;9.190;2023-04-24T04:23:34;12.40;99.90
5128;DHT22;2582;48.770;9.190;2023-04-24T04:26:00;12.50;99.90
5128;DHT22;2582;48.770;9.190;2023-04-24T04:28:26;12.50;99.90
5128;DHT22;2582;48.770;9.190;2023-04-24T04:30:52;12.40;99.90
5128;DHT22;2582;48.770;9.190;2023-04-24T04:33:21;12.50;99.90
5128;DHT22;2582;48.770;9.190;2023-04-24T04:35:47;12.30;99.90
5128;DHT22;2582;48.770;9.190;2023-04-24T04:38:14;12.10;99.90
5128;DHT22;2582;48.770;9.190;2023-04-24T04:40:40;12.00;99.90
5128;DHT22;2582;48.770;9.190;2023-04-24T04:43:06;11.90;99.90
5128;DHT22;2582;48.770;9.190;2023-04-24T04:45:32;11.90;99.90
5128;DHT22;2582;48.770;9.190;2023-04-24T04:47:58;11.80;99.90
5128;DHT22;2582;48.770;9.190;2023-04-24T04:50:26;11.60;99.90
5128;DHT22;2582;48.770;9.190;2023-04-24T04:52:52;11.60;99.90
5128;DHT22;2582;48.770;9.190;2023-04-24T04:55:17;11.50;99.90
5128;DHT22;2582;48.770;9.190;2023-04-24T04:57:45;11.60;99.90
5128;DHT22;2582;48.770;9.190;2023-04-24T05:00:12;11.80;99.90
5128;DHT22;2582;48.770;9.190;2023-04-24T05:02:41;11.70;99.90
5128;DHT22;2582;48.770;9.190;2023-04-24T05:05:07;11.90;99.90
5128;DHT22;2582;48.770;9.190;2023-04-24T05:07:33;11.90;99.90
5128;DHT22;2582;48.770;9.190;2023-04-24T05:09:58;11.90;99.90
5128;DHT22;2582;48.770;9.190;2023-04-24T05:12:24;11.80;99.90
5128;DHT22;2582;48.770;9.190;2023-04-24T05:14:50;11.80;99.90
5128;DHT22;2582;48.770;9.190;2023-04-24T05:17:15;11.90;99.90
5128;DHT22;2582;48.770;9.190;2023-04-24T05:19:41;11.90;99.90
5128;DHT22;2582;48.770;9.190;2023-04-24T05:22:07;11.90;99.90
5128;DHT22;2582;48.770;9.190;2023-04-24T05:24:33;12.00;99.90
5128;DHT22;2582;48.770;9.190;2023-04-24T05:26:59;11.90;99.90
5128;DHT22;2582;48.770;9.190;2023-04-24T05:29:25;11.90;99.90
5128;DHT22;2582;48.770;9.190;2023-04-24T05:31:51;12.00;99.90
5128;DHT22;2582;48.770;9.190;2023-04-24T05:34:17;12.10;99.90
5128;DHT22;2582;48.770;9.190;2023-04-24T05:36:43;12.00;99.90
5128;DHT22;2582;48.770;9.190;2023-04-24T05:39:09;12.00;99.90
5128;DHT22;2582;48.770;9.190;2023-04-24T05:41:34;12.10;99.90
5128;DHT22;2582;48.770;9.190;2023-04-24T05:44:00;12.00;99.90
5128;DHT22;2582;48.770;9.190;2023-04-24T05:46:25;12.00;99.90
5128;DHT22;2582;48.770;9.190;2023-04-24T05:48:51;11.90;99.90
5128;DHT22;2582;48.770;9.190;2023-04-24T05:51:17;12.00;99.90
5128;DHT22;2582;48.770;9.190;2023-04-24T05:53:42;12.00;99.90
5128;DHT22;2582;48.770;9.190;2023-04-24T05:56:08;12.00;99.90
5128;DHT22;2582;48.770;9.190;2023-04-24T05:58:34;12.00;99.90
5128;DHT22;2582;48.770;9.190;2023-04-24T06:00:59;12.10;99.90
5128;DHT22;2582;48.770;9.190;2023-04-24T06:03:26;12.20;99.90
5128;DHT22;2582;48.770;9.190;2023-04-24T06:05:53;12.20;99.90
5128;DHT22;2582;48.770;9.190;2023-04-24T06:08:18;12.40;99.90
5128;DHT22;2582;48.770;9.190;2023-04-24T06:10:44;12.30;99.90
5128;DHT22;2582;48.770;9.190;2023-04-24T06:13:09;12.30;99.90
5128;DHT22;2582;48.770;9.190;2023-04-24T06:15:35;12.20;99.90
5128;DHT22;2582;48.770;9.190;2023-04-24T06:18:01;12.10;99.90
5128;DHT22;2582;48.770;9.190;2023-04-24T06:20:26;12.20;99.90
5128;DHT22;2582;48.770;9.190;2023-04-24T06:22:52;12.30;99.90
5128;DHT22;2582;48.770;9.190;2023-04-24T06:25:18;12.40;99.90
5128;DHT22;2582;48.770;9.190;2023-04-24T06:27:44;12.40;99.90
5128;DHT22;2582;48.770;9.190;2023-04-24T06:30:10;12.50;99.90
5128;DHT22;2582;48.770;9.190;2023-04-24T06:32:36;12.60;99.90
5128;DHT22;2582;48.770;9.190;2023-04-24T06:35:01;12.70;99.90
5128;DHT22;2582;48.770;9.190;2023-04-24T06:37:27;12.70;99.90
5128;DHT22;2582;48.770;9.190;2023-04-24T06:39:53;12.70;99.90
5128;DHT22;2582;48.770;9.190;2023-04-24T06:42:18;12.80;99.90
5128;DHT22;2582;48.770;9.190;2023-04-24T06:44:46;12.70;99.90
5128;DHT22;2582;48.770;9.190;2023-04-24T06:47:11;12.80;99.90
5128;DHT22;2582;48.770;9.190;2023-04-24T06:49:40;13.00;99.90
5128;DHT22;2582;48.770;9.190;2023-04-24T06:52:06;13.00;99.90
5128;DHT22;2582;48.770;9.190;2023-04-24T06:54:32;13.30;99.90
5128;DHT22;2582;48.770;9.190;2023-04-24T06:56:58;13.50;99.90
5128;DHT22;2582;48.770;9.190;2023-04-24T06:59:24;13.50;99.90
5128;DHT22;2582;48.770;9.190;2023-04-24T07:01:50;13.40;99.90
5128;DHT22;2582;48.770;9.190;2023-04-24T07:04:19;13.40;99.90
5128;DHT22;2582;48.770;9.190;2023-04-24T07:06:47;13.30;99.90
5128;DHT22;2582;48.770;9.190;2023-04-24T07:09:14;13.50;99.90
5128;DHT22;2582;48.770;9.190;2023-04-24T07:11:41;13.50;99.90
5128;DHT22;2582;48.770;9.190;2023-04-24T07:14:07;13.40;99.90
5128;DHT22;2582;48.770;9.190;2023-04-24T07:16:32;13.50;99.90
5128;DHT22;2582;48.770;9.190;2023-04-24T07:18:58;13.80;99.90
5128;DHT22;2582;48.770;9.190;2023-04-24T07:21:23;13.60;99.90
5128;DHT22;2582;48.770;9.190;2023-04-24T07:23:50;13.40;99.90
5128;DHT22;2582;48.770;9.190;2023-04-24T07:26:15;13.40;99.90
5128;DHT22;2582;48.770;9.190;2023-04-24T07:28:41;13.10;99.90
5128;DHT22;2582;48.770;9.190;2023-04-24T07:31:07;13.00;99.90
5128;DHT22;2582;48.770;9.190;2023-04-24T07:33:33;12.90;99.90
5128;DHT22;2582;48.770;9.190;2023-04-24T07:35:59;12.90;99.90
5128;DHT22;2582;48.770;9.190;2023-04-24T07:38:25;13.00;99.90
5128;DHT22;2582;48.770;9.190;2023-04-24T07:40:51;13.20;99.90
5128;DHT22;2582;48.770;9.190;2023-04-24T07:43:17;13.40;99.90
5128;DHT22;2582;48.770;9.190;2023-04-24T07:45:43;13.40;99.90
5128;DHT22;2582;48.770;9.190;2023-04-24T07:48:09;13.70;99.90
5128;DHT22;2582;48.770;9.190;2023-04-24T07:50:35;13.80;99.90
5128;DHT22;2582;48.770;9.190;2023-04-24T07:53:01;13.80;99.90
5128;DHT22;2582;48.770;9.190;2023-04-24T07:55:27;13.90;99.90
5128;DHT22;2582;48.770;9.190;2023-04-24T07:57:52;14.20;99.90
5128;DHT22;2582;48.770;9.190;2023-04-24T08:00:18;14.20;99.90
5128;DHT22;2582;48.770;9.190;2023-04-24T08:02:45;14.30;99.90
5128;DHT22;2582;48.770;9.190;2023-04-24T08:05:10;14.30;99.90
5128;DHT22;2582;48.770;9.190;2023-04-24T08:07:36;14.30;99.90
5128;DHT22;2582;48.770;9.190;2023-04-24T08:10:02;14.00;99.90
5128;DHT22;2582;48.770;9.190;2023-04-24T08:12:29;14.00;99.90
5128;DHT22;2582;48.770;9.190;2023-04-24T08:14:54;14.00;99.90
5128;DHT22;2582;48.770;9.190;2023-04-24T08:17:20;14.00;99.90
5128;DHT22;2582;48.770;9.190;2023-04-24T08:19:46;14.00;99.90
5128;DHT22;2582;48.770;9.190;2023-04-24T08:22:14;13.90;99.90
5128;DHT22;2582;48.770;9.190;2023-04-24T08:24:40;13.90;99.90
5128;DHT22;2582;48.770;9.190;2023-04-24T08:27:05;13.90;99.90
5128;DHT22;2582;48.770;9.190;2023-04-24T08:29:31;13.90;99.90
5128;DHT22;2582;48.770;9.190;2023-04-24T08:31:57;13.90;99.90
5128;DHT22;2582;48.770;9.190;2023-04-24T08:34:23;14.00;99.90
5128;DHT22;2582;48.770;9.190;2023-04-24T08:36:49;14.00;99.90
5128;DHT22;2582;48.770;9.190;2023-04-24T08:39:14;13.80;99.90
5128;DHT22;2582;48.770;9.190;2023-04-24T08:41:42;13.90;99.90
5128;DHT22;2582;48.770;9.190;2023-04-24T08:44:09;14.00;99.90
5128;DHT22;2582;48.770;9.190;2023-04-24T08:46:35;14.10;99.90
5128;DHT22;2582;48.770;9.190;2023-04-24T08:49:02;14.00;99.90
5128;DHT22;2582;48.770;9.190;2023-04-24T08:51:27;13.90;99.90
5128;DHT22;2582;48.770;9.190;2023-04-24T08:53:56;13.60;99.90
5128;DHT22;2582;48.770;9.190;2023-04-24T08:56:22;13.40;99.90
5128;DHT22;2582;48.770;9.190;2023-04-24T08:58:53;13.40;99.90
5128;DHT22;2582;48.770;9.190;2023-04-24T09:01:20;13.40;99.90
5128;DHT22;2582;48.770;9.190;2023-04-24T09:03:48;13.50;99.90
5128;DHT22;2582;48.770;9.190;2023-04-24T09:06:15;13.40;99.90
5128;DHT22;2582;48.770;9.190;2023-04-24T09:08:42;13.50;99.90
5128;DHT22;2582;48.770;9.190;2023-04-24T09:11:09;13.60;99.90
5128;DHT22;2582;48.770;9.190;2023-04-24T09:13:35;13.60;99.90
5128;DHT22;2582;48.770;9.190;2023-04-24T09:16:01;13.40;99.90
5128;DHT22;2582;48.770;9.190;2023-04-24T09:18:26;13.20;99.90
5128;DHT22;2582;48.770;9.190;2023-04-24T09:21:01;13.30;99.90
5128;DHT22;2582;48.770;9.190;2023-04-24T09:23:30;13.20;99.90
5128;DHT22;2582;48.770;9.190;2023-04-24T09:25:57;12.90;99.90
5128;DHT22;2582;48.770;9.190;2023-04-24T09:28:34;12.90;99.90
5128;DHT22;2582;48.770;9.190;2023-04-24T09:31:04;12.70;99.90
5128;DHT22;2582;48.770;9.190;2023-04-24T09:33:30;12.50;99.90
5128;DHT22;2582;48.770;9.190;2023-04-24T09:35:56;12.10;99.90
5128;DHT22;2582;48.770;9.190;2023-04-24T09:41:00;12.50;99.90
5128;DHT22;2582;48.770;9.190;2023-04-24T09:43:26;12.70;99.90
5128;DHT22;2582;48.770;9.190;2023-04-24T09:45:56;12.70;99.90
5128;DHT22;2582;48.770;9.190;2023-04-24T09:48:35;12.80;99.90
5128;DHT22;2582;48.770;9.190;2023-04-24T09:51:03;13.20;99.90
5128;DHT22;2582;48.770;9.190;2023-04-24T09:53:30;13.30;99.90
5128;DHT22;2582;48.770;9.190;2023-04-24T09:56:01;13.50;99.90
5128;DHT22;2582;48.770;9.190;2023-04-24T09:58:28;13.40;99.90
5128;DHT22;2582;48.770;9.190;2023-04-24T10:00:55;13.40;99.90
5128;DHT22;2582;48.770;9.190;2023-04-24T10:03:24;13.40;99.90
5128;DHT22;2582;48.770;9.190;2023-04-24T10:05:51;13.40;99.90
5128;DHT22;2582;48.770;9.190;2023-04-24T10:08:17;13.40;99.90
5128;DHT22;2582;48.770;9.190;2023-04-24T10:10:46;13.40;99.90
5128;DHT22;2582;48.770;9.190;2023-04-24T10:13:13;13.60;99.90
5128;DHT22;2582;48.770;9.190;2023-04-24T10:15:41;13.70;99.90
5128;DHT22;2582;48.770;9.190;2023-04-24T10:18:07;13.60;99.90
5128;DHT22;2582;48.770;9.190;2023-04-24T10:20:35;13.50;99.90
5128;DHT22;2582;48.770;9.190;2023-04-24T10:23:01;13.60;99.90
5128;DHT22;2582;48.770;9.190;2023-04-24T10:25:32;13.80;99.90
5128;DHT22;2582;48.770;9.190;2023-04-24T10:27:59;13.80;98.60
5128;DHT22;2582;48.770;9.190;2023-04-24T10:30:27;14.00;98.70
5128;DHT22;2582;48.770;9.190;2023-04-24T10:32:53;14.30;98.00
5128;DHT22;2582;48.770;9.190;2023-04-24T10:35:19;14.70;96.90
5128;DHT22;2582;48.770;9.190;2023-04-24T10:37:56;14.70;97.20
5128;DHT22;2582;48.770;9.190;2023-04-24T10:40:33;14.80;97.00
5128;DHT22;2582;48.770;9.190;2023-04-24T10:43:03;14.90;97.60
5128;DHT22;2582;48.770;9.190;2023-04-24T10:45:31;14.60;97.00
5128;DHT22;2582;48.770;9.190;2023-04-24T10:48:02;14.30;97.70
5128;DHT22;2582;48.770;9.190;2023-04-24T10:50:29;14.00;97.80
5128;DHT22;2582;48.770;9.190;2023-04-24T10:53:06;13.90;98.30
5128;DHT22;2582;48.770;9.190;2023-04-24T10:55:44;14.00;99.00
5128;DHT22;2582;48.770;9.190;2023-04-24T10:58:10;13.90;98.40
5128;DHT22;2582;48.770;9.190;2023-04-24T11:00:37;13.90;98.70
5128;DHT22;2582;48.770;9.190;2023-04-24T11:03:12;13.90;98.60
5128;DHT22;2582;48.770;9.190;2023-04-24T11:08:30;14.30;99.20
5128;DHT22;2582;48.770;9.190;2023-04-24T11:11:08;14.20;98.60
5128;DHT22;2582;48.770;9.190;2023-04-24T11:21:46;13.70;99.50
5128;DHT22;2582;48.770;9.190;2023-04-24T11:24:39;13.70;99.00
5128;DHT22;2582;48.770;9.190;2023-04-24T11:27:13;13.90;99.40
5128;DHT22;2582;48.770;9.190;2023-04-24T11:32:35;14.80;98.90
5128;DHT22;2582;48.770;9.190;2023-04-24T11:35:06;16.20;96.50
5128;DHT22;2582;48.770;9.190;2023-04-24T11:37:46;16.00;95.40
5128;DHT22;2582;48.770;9.190;2023-04-24T11:40:13;16.50;95.10
5128;DHT22;2582;48.770;9.190;2023-04-24T11:42:43;16.60;94.70
5128;DHT22;2582;48.770;9.190;2023-04-24T11:45:14;16.10;95.00
5128;DHT22;2582;48.770;9.190;2023-04-24T11:47:41;15.70;95.30
5128;DHT22;2582;48.770;9.190;2023-04-24T11:50:14;15.20;97.40
5128;DHT22;2582;48.770;9.190;2023-04-24T11:52:42;14.70;96.80
5128;DHT22;2582;48.770;9.190;2023-04-24T11:55:23;14.10;98.00
5128;DHT22;2582;48.770;9.190;2023-04-24T11:57:54;14.10;98.50
5128;DHT22;2582;48.770;9.190;2023-04-24T12:00:25;14.00;98.50
5128;DHT22;2582;48.770;9.190;2023-04-24T12:03:02;14.20;99.50
5128;DHT22;2582;48.770;9.190;2023-04-24T12:05:29;14.70;99.90
5128;DHT22;2582;48.770;9.190;2023-04-24T12:07:56;15.20;98.30
5128;DHT22;2582;48.770;9.190;2023-04-24T12:10:23;15.80;97.30
5128;DHT22;2582;48.770;9.190;2023-04-24T12:12:50;16.50;97.40
5128;DHT22;2582;48.770;9.190;2023-04-24T12:15:18;16.30;95.10
5128;DHT22;2582;48.770;9.190;2023-04-24T12:17:44;15.50;96.00
5128;DHT22;2582;48.770;9.190;2023-04-24T12:20:10;15.10;96.80
5128;DHT22;2582;48.770;9.190;2023-04-24T12:22:53;14.70;97.20
5128;DHT22;2582;48.770;9.190;2023-04-24T12:25:24;14.60;97.30
5128;DHT22;2582;48.770;9.190;2023-04-24T12:30:33;14.40;97.90
5128;DHT22;2582;48.770;9.190;2023-04-24T12:33:00;14.40;97.40
5128;DHT22;2582;48.770;9.190;2023-04-24T12:35:28;14.40;97.40
5128;DHT22;2582;48.770;9.190;2023-04-24T12:37:54;14.40;97.60
5128;DHT22;2582;48.770;9.190;2023-04-24T12:40:20;14.30;96.90
5128;DHT22;2582;48.770;9.190;2023-04-24T12:42:48;14.30;97.20
5128;DHT22;2582;48.770;9.190;2023-04-24T12:45:16;14.30;96.80
5128;DHT22;2582;48.770;9.190;2023-04-24T12:47:43;14.60;97.60
5128;DHT22;2582;48.770;9.190;2023-04-24T12:50:10;14.60;96.50
5128;DHT22;2582;48.770;9.190;2023-04-24T12:52:37;14.50;96.80
5128;DHT22;2582;48.770;9.190;2023-04-24T12:55:03;14.50;97.30
5128;DHT22;2582;48.770;9.190;2023-04-24T12:57:30;14.40;96.70
5128;DHT22;2582;48.770;9.190;2023-04-24T12:59:58;14.20;97.20
5128;DHT22;2582;48.770;9.190;2023-04-24T13:02:28;14.20;97.80
5128;DHT22;2582;48.770;9.190;2023-04-24T13:04:58;14.00;98.90
5128;DHT22;2582;48.770;9.190;2023-04-24T13:07:24;13.90;98.80
5128;DHT22;2582;48.770;9.190;2023-04-24T13:09:51;13.80;99.50
5128;DHT22;2582;48.770;9.190;2023-04-24T13:12:17;13.70;99.90
5128;DHT22;2582;48.770;9.190;2023-04-24T13:14:43;13.50;99.90
5128;DHT22;2582;48.770;9.190;2023-04-24T13:17:08;13.40;99.90
5128;DHT22;2582;48.770;9.190;2023-04-24T13:19:39;13.70;99.90
5128;DHT22;2582;48.770;9.190;2023-04-24T13:22:05;13.90;99.90
5128;DHT22;2582;48.770;9.190;2023-04-24T13:24:32;14.20;99.90
5128;DHT22;2582;48.770;9.190;2023-04-24T13:26:58;14.90;99.90
5128;DHT22;2582;48.770;9.190;2023-04-24T13:29:24;15.10;99.90
5128;DHT22;2582;48.770;9.190;2023-04-24T13:31:54;15.60;99.90
5128;DHT22;2582;48.770;9.190;2023-04-24T13:34:21;15.80;99.90
5128;DHT22;2582;48.770;9.190;2023-04-24T13:36:46;15.50;99.90
5128;DHT22;2582;48.770;9.190;2023-04-24T13:39:12;15.30;99.90
5128;DHT22;2582;48.770;9.190;2023-04-24T13:41:38;14.90;99.90
5128;DHT22;2582;48.770;9.190;2023-04-24T13:44:06;14.30;99.90
5128;DHT22;2582;48.770;9.190;2023-04-24T13:46:32;14.10;99.90
5128;DHT22;2582;48.770;9.190;2023-04-24T13:48:58;14.00;99.90
5128;DHT22;2582;48.770;9.190;2023-04-24T13:51:25;13.60;99.90
5128;DHT22;2582;48.770;9.190;2023-04-24T13:53:52;13.50;99.90
5128;DHT22;2582;48.770;9.190;2023-04-24T13:56:18;13.10;99.90
5128;DHT22;2582;48.770;9.190;2023-04-24T13:58:44;12.80;99.90
5128;DHT22;2582;48.770;9.190;2023-04-24T14:01:09;12.60;99.90
5128;DHT22;2582;48.770;9.190;2023-04-24T14:03:37;12.40;99.90
5128;DHT22;2582;48.770;9.190;2023-04-24T14:06:03;12.60;99.90
5128;DHT22;2582;48.770;9.190;2023-04-24T14:08:28;13.40;99.90
5128;DHT22;2582;48.770;9.190;2023-04-24T14:10:54;15.30;99.90
5128;DHT22;2582;48.770;9.190;2023-04-24T14:13:19;16.70;99.90
5128;DHT22;2582;48.770;9.190;2023-04-24T14:15:45;16.70;99.90
5128;DHT22;2582;48.770;9.190;2023-04-24T14:18:11;16.70;99.90
5128;DHT22;2582;48.770;9.190;2023-04-24T14:20:37;16.10;99.90
5128;DHT22;2582;48.770;9.190;2023-04-24T14:23:03;17.00;99.90
5128;DHT22;2582;48.770;9.190;2023-04-24T14:25:29;17.60;99.90
5128;DHT22;2582;48.770;9.190;2023-04-24T14:27:55;17.70;99.90
5128;DHT22;2582;48.770;9.190;2023-04-24T14:30:21;17.90;99.90
5128;DHT22;2582;48.770;9.190;2023-04-24T14:32:46;17.60;99.50
5128;DHT22;2582;48.770;9.190;2023-04-24T14:35:12;17.40;99.30
5128;DHT22;2582;48.770;9.190;2023-04-24T14:37:38;17.50;99.60
5128;DHT22;2582;48.770;9.190;2023-04-24T14:40:07;18.10;97.90
5128;DHT22;2582;48.770;9.190;2023-04-24T14:42:33;19.20;95.60
5128;DHT22;2582;48.770;9.190;2023-04-24T14:44:59;18.80;95.30
5128;DHT22;2582;48.770;9.190;2023-04-24T14:47:24;19.60;94.70
5128;DHT22;2582;48.770;9.190;2023-04-24T14:49:50;18.60;94.50
5128;DHT22;2582;48.770;9.190;2023-04-24T14:52:16;17.20;96.70
5128;DHT22;2582;48.770;9.190;2023-04-24T14:54:42;16.40;98.30
5128;DHT22;2582;48.770;9.190;2023-04-24T14:57:08;16.10;99.20
5128;DHT22;2582;48.770;9.190;2023-04-24T14:59:34;15.90;99.20
5128;DHT22;2582;48.770;9.190;2023-04-24T15:01:59;15.70;99.90
5128;DHT22;2582;48.770;9.190;2023-04-24T15:04:25;16.40;99.80
5128;DHT22;2582;48.770;9.190;2023-04-24T15:06:52;17.90;97.80
5128;DHT22;2582;48.770;9.190;2023-04-24T15:09:19;19.20;95.50
5128;DHT22;2582;48.770;9.190;2023-04-24T15:11:46;18.90;94.60
5128;DHT22;2582;48.770;9.190;2023-04-24T15:14:11;17.10;95.00
5128;DHT22;2582;48.770;9.190;2023-04-24T15:16:37;16.30;97.20
5128;DHT22;2582;48.770;9.190;2023-04-24T15:19:03;15.60;97.90
5128;DHT22;2582;48.770;9.190;2023-04-24T15:21:28;15.30;99.40
5128;DHT22;2582;48.770;9.190;2023-04-24T15:23:54;15.20;99.60
5128;DHT22;2582;48.770;9.190;2023-04-24T15:26:19;15.00;99.60
5128;DHT22;2582;48.770;9.190;2023-04-24T15:28:45;14.60;99.90
5128;DHT22;2582;48.770;9.190;2023-04-24T15:31:12;14.60;99.90
5128;DHT22;2582;48.770;9.190;2023-04-24T15:33:38;14.50;99.90
5128;DHT22;2582;48.770;9.190;2023-04-24T15:36:03;14.30;99.90
5128;DHT22;2582;48.770;9.190;2023-04-24T15:38:29;14.30;99.90
5128;DHT22;2582;48.770;9.190;2023-04-24T15:40:55;14.30;99.90
5128;DHT22;2582;48.770;9.190;2023-04-24T15:43:21;14.10;99.90
5128;DHT22;2582;48.770;9.190;2023-04-24T15:45:49;13.90;99.90
5128;DHT22;2582;48.770;9.190;2023-04-24T15:48:15;13.70;99.90
5128;DHT22;2582;48.770;9.190;2023-04-24T15:50:41;13.80;99.90
5128;DHT22;2582;48.770;9.190;2023-04-24T15:53:07;13.90;99.90
5128;DHT22;2582;48.770;9.190;2023-04-24T15:55:33;14.50;99.90
5128;DHT22;2582;48.770;9.190;2023-04-24T15:57:59;14.60;99.90
5128;DHT22;2582;48.770;9.190;2023-04-24T16:00:25;14.80;99.90
5128;DHT22;2582;48.770;9.190;2023-04-24T16:02:53;15.10;99.90
5128;DHT22;2582;48.770;9.190;2023-04-24T16:05:18;15.40;99.90
5128;DHT22;2582;48.770;9.190;2023-04-24T16:07:44;15.50;99.90
5128;DHT22;2582;48.770;9.190;2023-04-24T16:10:10;15.70;99.90
5128;DHT22;2582;48.770;9.190;2023-04-24T16:12:36;16.10;99.90
5128;DHT22;2582;48.770;9.190;2023-04-24T16:15:02;15.90;99.90
5128;DHT22;2582;48.770;9.190;2023-04-24T16:17:28;15.50;99.90